createdAt,value
2019-02-07T00:02:04.447Z,100002.11
2019-02-07T00:04:33.635Z,99999.49
2019-02-07T00:07:02.842Z,100001.98
2019-02-07T00:09:34.107Z,99993.16
2019-02-07T00:12:03.588Z,99986.58
2019-02-07T00:14:39.510Z,99968.05
2019-02-07T00:17:04.118Z,99961.48
2019-02-07T00:19:33.282Z,99945.70
2019-02-07T00:22:03.030Z,99937.44
2019-02-07T00:24:42.493Z,99933.48
2019-02-07T00:27:04.880Z,99921.82
2019-02-07T00:29:34.542Z,99920.16
2019-02-07T00:32:04.269Z,99925.18
2019-02-07T00:34:33.665Z,99928.70
2019-02-07T00:37:03.416Z,99914.07
2019-02-07T00:39:32.996Z,99911.90
2019-02-07T00:42:02.866Z,99915.69
2019-02-07T00:44:32.381Z,99909.36
2019-02-07T00:47:01.848Z,99896.13
2019-02-07T00:49:31.617Z,99886.72
2019-02-07T00:52:01.057Z,99877.70
2019-02-07T00:54:30.800Z,99877.39
2019-02-07T00:57:00.915Z,99869.72
2019-02-07T00:59:30.135Z,99871.86
2019-02-07T01:01:59.320Z,99870.08
2019-02-07T01:04:28.786Z,99866.05
2019-02-07T01:06:58.512Z,99858.58
2019-02-07T01:09:28.350Z,99852.33
2019-02-07T01:11:58.273Z,99839.69
2019-02-07T01:14:27.469Z,99836.13
2019-02-07T01:16:56.657Z,99836.88
2019-02-07T01:19:26.105Z,99828.27
2019-02-07T01:21:55.280Z,99822.18
2019-02-07T01:24:24.742Z,99808.00
2019-02-07T01:26:54.505Z,99820.09
2019-02-07T01:29:24.038Z,99819.77
2019-02-07T01:31:53.824Z,99814.48
2019-02-07T01:34:23.629Z,99809.93
2019-02-07T01:36:53.053Z,99811.63
2019-02-07T01:39:22.661Z,99810.29
2019-02-07T01:41:52.123Z,99810.52
2019-02-07T01:44:21.319Z,99807.41
2019-02-07T01:46:50.486Z,99800.38
2019-02-07T01:49:19.689Z,99792.16
2019-02-07T01:51:49.142Z,99783.14
2019-02-07T01:54:18.432Z,99779.63
2019-02-07T01:56:47.606Z,99781.88
2019-02-07T01:59:16.806Z,99777.22
2019-02-07T02:01:46.375Z,99774.84
2019-02-07T02:04:15.568Z,99773.51
2019-02-07T02:06:44.752Z,99780.14
2019-02-07T02:09:14.044Z,99771.14
2019-02-07T02:11:43.484Z,99773.88
2019-02-07T02:14:13.057Z,99774.34
2019-02-07T02:16:42.220Z,99772.84
2019-02-07T02:19:11.433Z,99771.14
2019-02-07T02:21:40.631Z,99767.98
2019-02-07T02:24:10.189Z,99760.44
2019-02-07T02:26:39.353Z,99750.91
2019-02-07T02:29:08.658Z,99741.12
2019-02-07T02:31:38.175Z,99741.19
2019-02-07T02:34:07.754Z,99727.84
2019-02-07T02:36:37.288Z,99717.52
2019-02-07T02:39:47.864Z,99716.08
2019-02-07T02:42:17.725Z,99718.84
2019-02-07T02:44:47.286Z,99708.56
2019-02-07T02:47:16.470Z,99702.57
2019-02-07T02:49:45.663Z,99699.89
2019-02-07T02:52:14.876Z,99696.52
2019-02-07T02:55:03.259Z,99698.41
2019-02-07T02:57:32.699Z,99701.75
2019-02-07T03:00:01.994Z,99689.73
2019-02-07T03:02:50.080Z,99690.18
2019-02-07T03:05:38.497Z,99687.48
2019-02-07T03:08:26.864Z,99675.98
2019-02-07T03:11:15.551Z,99670.33
2019-02-07T03:14:03.640Z,99659.13
2019-02-07T03:16:51.766Z,99645.94
2019-02-07T03:19:30.175Z,99643.45
2019-02-07T03:22:18.571Z,99632.84
2019-02-07T03:25:06.773Z,99631.44
2019-02-07T03:27:54.883Z,99624.58
2019-02-07T03:30:43.012Z,99612.37
2019-02-07T03:33:31.711Z,99614.59
2019-02-07T03:36:20.102Z,99604.91
2019-02-07T03:39:08.470Z,99597.83
2019-02-07T03:41:56.643Z,99597.56
2019-02-07T03:44:45.281Z,99596.08
2019-02-07T03:47:33.702Z,99599.39
2019-02-07T03:50:22.327Z,99598.22
2019-02-07T03:53:10.776Z,99590.27
2019-02-07T03:55:58.891Z,99590.40
2019-02-07T03:58:47.023Z,99584.68
2019-02-07T04:01:35.407Z,99585.33
2019-02-07T04:07:25.396Z,99570.32
2019-02-07T04:10:13.494Z,99569.38
2019-02-07T04:13:01.619Z,99569.44
2019-02-07T04:15:49.733Z,99563.72
2019-02-07T04:18:30.486Z,99562.08
2019-02-07T04:21:18.770Z,99561.49
2019-02-07T04:23:57.423Z,99550.47
2019-02-07T04:32:27.185Z,99538.30
2019-02-07T05:33:47.143Z,99453.17
2019-02-07T06:09:09.385Z,99393.08
2019-02-07T06:11:57.753Z,99389.26
2019-02-07T06:14:46.170Z,99390.14
2019-02-07T06:17:34.537Z,99392.26
2019-02-07T06:20:24.425Z,99385.26
2019-02-07T06:23:12.842Z,99386.85
2019-02-07T06:26:00.979Z,99387.30
2019-02-07T06:28:49.289Z,99377.96
2019-02-07T06:31:38.697Z,99377.09
2019-02-07T06:34:29.032Z,99370.05
2019-02-07T06:37:16.949Z,99367.63
2019-02-07T06:40:05.646Z,99381.13
2019-02-07T06:42:54.069Z,99373.53
2019-02-07T06:45:42.476Z,99377.00
2019-02-07T08:22:08.666Z,99351.28
2019-02-07T08:24:45.104Z,99351.17
2019-02-07T08:27:33.957Z,99361.39
2019-02-07T08:47:58.665Z,99358.81
2019-02-07T09:44:33.416Z,99450.55
2019-02-07T09:47:13.680Z,99457.98
2019-02-07T10:34:31.253Z,99464.06
2019-02-07T10:40:36.449Z,99467.48
2019-02-07T10:46:23.460Z,99472.50
2019-02-07T10:49:03.531Z,99473.36
2019-02-07T10:51:52.182Z,99477.44
2019-02-07T11:03:37.049Z,99494.53
2019-02-07T11:06:25.496Z,99488.02
2019-02-07T11:12:12.169Z,99486.11
2019-02-07T12:23:13.377Z,99491.95
2019-02-07T12:25:51.218Z,99491.98
2019-02-07T12:28:30.806Z,99486.33
2019-02-07T12:31:19.315Z,99485.51
2019-02-07T12:34:07.461Z,99494.14
2019-02-07T12:36:56.462Z,99480.90
2019-02-07T12:39:44.593Z,99505.63
2019-02-07T12:42:33.036Z,99506.16
2019-02-07T12:45:21.457Z,99497.27
2019-02-07T12:48:10.002Z,99492.63
2019-02-07T12:50:58.767Z,99488.89
2019-02-07T12:53:47.301Z,99488.36
2019-02-07T12:56:37.152Z,99490.00
2019-02-07T12:59:46.049Z,99477.52
2019-02-07T13:02:34.211Z,99475.09
2019-02-07T13:05:44.955Z,99479.19
2019-02-07T13:08:33.383Z,99470.73
2019-02-07T13:11:22.115Z,99461.55
2019-02-07T13:14:10.556Z,99462.39
2019-02-07T13:16:58.683Z,99461.38
2019-02-07T13:19:47.122Z,99465.72
2019-02-07T13:22:35.291Z,99476.30
2019-02-07T13:28:32.526Z,99471.12
2019-02-07T13:31:20.697Z,99464.61
2019-02-07T13:34:09.370Z,99464.84
2019-02-07T13:45:28.038Z,99486.05
2019-02-07T13:59:27.073Z,99494.81
2019-02-07T14:05:12.798Z,99498.08
2019-02-07T14:08:01.430Z,99510.02
2019-02-07T14:10:38.563Z,99526.84
2019-02-07T14:13:27.437Z,99525.45
2019-02-07T14:16:15.708Z,99533.29
2019-02-07T14:18:56.600Z,99556.53
2019-02-07T14:21:45.038Z,99549.09
2019-02-07T14:24:33.489Z,99524.67
2019-02-07T14:27:22.620Z,99545.58
2019-02-07T14:30:11.063Z,99534.62
2019-02-07T14:33:00.057Z,99548.94
2019-02-07T14:35:48.542Z,99547.02
2019-02-07T14:38:36.732Z,99538.88
2019-02-07T14:41:25.605Z,99546.46
2019-02-07T14:44:02.557Z,99552.34
2019-02-07T14:46:51.277Z,99555.32
2019-02-07T14:49:20.792Z,99565.38
2019-02-07T14:51:50.257Z,99568.88
2019-02-07T14:54:19.493Z,99579.21
2019-02-07T14:56:48.766Z,99582.47
2019-02-07T15:02:52.648Z,99584.80
2019-02-07T15:05:22.558Z,99577.41
2019-02-07T15:07:52.366Z,99578.80
2019-02-07T15:10:21.884Z,99582.30
2019-02-07T15:12:51.364Z,99576.38
2019-02-07T15:15:21.778Z,99580.95
2019-02-07T15:17:50.975Z,99578.52
2019-02-07T15:20:26.164Z,99581.45
2019-02-07T15:25:27.374Z,99588.42
2019-02-07T15:27:57.206Z,99586.45
2019-02-07T15:30:27.072Z,99596.69
2019-02-07T15:32:56.576Z,99599.11
2019-02-07T15:35:29.566Z,99595.58
2019-02-07T15:37:59.449Z,99582.03
2019-02-07T15:40:28.986Z,99587.92
2019-02-07T15:42:59.107Z,99591.45
2019-02-07T15:45:28.877Z,99583.89
2019-02-07T15:47:58.834Z,99587.64
2019-02-07T15:50:37.695Z,99588.70
2019-02-07T15:55:54.451Z,99591.07
2019-02-07T16:07:02.324Z,99599.41
2019-02-07T16:09:31.576Z,99598.91
2019-02-07T16:12:00.814Z,99597.47
2019-02-07T16:14:50.820Z,99602.64
2019-02-07T16:17:21.740Z,99597.55
2019-02-07T16:19:53.621Z,99597.58
2019-02-07T16:22:24.294Z,99600.73
2019-02-07T16:24:54.781Z,99597.44
2019-02-07T16:27:25.185Z,99594.09
2019-02-07T16:29:54.857Z,99587.03
2019-02-07T16:41:13.635Z,99589.87
2019-02-07T16:43:43.199Z,99593.40
2019-02-07T16:46:12.417Z,99593.59
2019-02-07T16:48:43.809Z,99585.28
2019-02-07T16:51:13.755Z,99594.17
2019-02-07T17:28:37.872Z,99602.44
2019-02-07T17:31:07.347Z,99606.02
2019-02-07T17:33:37.395Z,99606.80
2019-02-07T17:36:06.949Z,99605.49
2019-02-07T17:38:36.983Z,99602.80
2019-02-07T17:41:07.873Z,99614.67
2019-02-07T17:43:38.534Z,99615.23
2019-02-07T17:46:26.835Z,99628.81
2019-02-07T17:51:45.262Z,99628.63
2019-02-07T17:54:18.797Z,99626.33
2019-02-07T17:57:05.585Z,99632.12
2019-02-07T17:59:35.057Z,99634.87
2019-02-07T18:02:23.625Z,99639.44
2019-02-07T18:04:52.833Z,99646.81
2019-02-07T18:07:22.688Z,99645.88
2019-02-07T18:09:51.884Z,99641.58
2019-02-07T18:12:21.112Z,99651.06
2019-02-07T18:14:50.732Z,99645.91
2019-02-07T18:17:20.298Z,99651.21
2019-02-07T18:19:50.218Z,99647.52
2019-02-07T18:22:19.693Z,99651.03
2019-02-07T18:24:48.929Z,99648.81
2019-02-07T18:27:18.156Z,99644.95
2019-02-07T18:29:47.369Z,99644.82
2019-02-07T18:32:16.902Z,99646.98
2019-02-07T18:34:47.185Z,99647.48
2019-02-07T18:37:16.797Z,99654.29
2019-02-07T18:39:46.287Z,99643.33
2019-02-07T18:42:15.509Z,99645.33
2019-02-07T18:44:44.745Z,99638.09
2019-02-07T18:47:14.346Z,99641.98
2019-02-07T18:49:43.833Z,99641.56
2019-02-07T18:52:14.782Z,99643.14
2019-02-07T18:54:44.131Z,99647.83
2019-02-07T18:57:13.608Z,99646.73
2019-02-07T18:59:43.528Z,99654.80
2019-02-07T19:02:13.255Z,99650.63
2019-02-07T19:04:43.033Z,99647.84
2019-02-07T19:07:12.513Z,99644.36
2019-02-07T19:09:42.139Z,99644.48
2019-02-07T19:12:14.588Z,99653.52
2019-02-07T19:14:50.032Z,99637.97
2019-02-07T19:17:19.610Z,99664.70
2019-02-07T19:22:44.268Z,99675.31
2019-02-07T19:25:13.695Z,99660.76
2019-02-07T19:27:42.993Z,99670.27
2019-02-07T19:30:16.387Z,99675.59
2019-02-07T19:32:45.895Z,99682.17
2019-02-07T19:35:34.506Z,99685.84
2019-02-07T19:38:03.771Z,99684.55
2019-02-07T19:40:33.542Z,99696.20
2019-02-07T19:43:23.257Z,99690.97
2019-02-07T19:49:06.296Z,99700.83
2019-02-07T19:51:54.776Z,99708.20
2019-02-07T19:54:24.323Z,99712.63
2019-02-07T19:56:55.365Z,99717.49
2019-02-07T19:59:25.141Z,99718.56
2019-02-07T20:01:55.088Z,99723.88
2019-02-07T20:04:24.446Z,99723.39
2019-02-07T20:06:54.312Z,99715.81
2019-02-07T20:09:23.966Z,99725.97
2019-02-07T20:11:53.755Z,99725.39
2019-02-07T20:30:37.539Z,99744.48
2019-02-07T20:38:45.023Z,99748.69
2019-02-07T20:41:14.552Z,99747.45
2019-02-07T20:46:33.225Z,99758.84
2019-02-07T20:49:23.157Z,99749.20
2019-02-07T20:51:52.380Z,99750.27
2019-02-07T20:54:21.578Z,99753.17
2019-02-07T20:56:51.460Z,99761.48
2019-02-07T20:59:20.947Z,99764.20
2019-02-07T21:04:46.014Z,99764.30
2019-02-07T21:07:15.251Z,99785.95
2019-02-07T21:09:44.744Z,99788.59
2019-02-07T21:12:14.235Z,99791.91
2019-02-07T21:14:43.468Z,99798.67
2019-02-07T21:17:12.695Z,99795.75
2019-02-07T21:19:42.572Z,99799.46
2019-02-07T21:22:11.796Z,99798.13
2019-02-07T21:25:02.065Z,99800.69
2019-02-07T21:27:50.663Z,99805.16
2019-02-07T21:30:23.991Z,99804.77
2019-02-07T21:32:53.919Z,99800.88
2019-02-07T21:51:58.404Z,99806.55
2019-02-07T21:54:28.442Z,99810.95
2019-02-07T21:56:58.276Z,99809.33
2019-02-07T21:59:27.911Z,99814.53
2019-02-07T22:01:57.459Z,99805.33
2019-02-07T22:04:27.080Z,99816.64
2019-02-07T22:06:57.020Z,99808.11
2019-02-07T22:09:26.478Z,99813.65
2019-02-07T22:11:55.728Z,99809.17
2019-02-07T22:14:25.172Z,99823.13
2019-02-07T22:16:54.421Z,99821.85
2019-02-07T22:19:23.618Z,99822.60
2019-02-07T22:21:53.391Z,99824.11
2019-02-07T22:24:22.876Z,99829.77
2019-02-07T22:26:52.078Z,99830.08
2019-02-07T22:29:21.471Z,99832.38
2019-02-07T22:31:50.958Z,99829.33
2019-02-07T22:34:20.177Z,99834.91
2019-02-07T22:36:49.634Z,99840.08
2019-02-07T22:39:19.094Z,99837.75
2019-02-07T22:41:48.355Z,99842.77
2019-02-07T22:44:18.418Z,99840.67
2019-02-07T22:46:49.849Z,99847.98
2019-02-07T22:49:19.072Z,99843.64
2019-02-07T22:51:48.566Z,99844.47
2019-02-07T22:54:18.061Z,99849.41
2019-02-07T22:56:47.557Z,99854.70
2019-02-07T22:59:18.529Z,99848.50
2019-02-07T23:04:48.372Z,99856.05
2019-02-07T23:07:17.855Z,99852.33
2019-02-07T23:09:47.048Z,99860.98
2019-02-07T23:12:16.273Z,99854.27
2019-02-07T23:14:45.465Z,99847.39
2019-02-07T23:17:14.665Z,99851.11
2019-02-07T23:19:43.914Z,99843.78
2019-02-07T23:22:13.399Z,99849.16
2019-02-07T23:24:42.612Z,99845.28
2019-02-07T23:27:11.820Z,99846.98
2019-02-07T23:29:41.696Z,99843.94
2019-02-07T23:32:10.998Z,99846.31
2019-02-07T23:34:40.502Z,99845.57
2019-02-07T23:37:11.413Z,99842.02
2019-02-07T23:39:41.202Z,99847.08
2019-02-07T23:42:10.752Z,99846.56
2019-02-07T23:44:39.979Z,99847.31
2019-02-07T23:47:09.171Z,99853.80
2019-02-07T23:49:38.663Z,99855.01
2019-02-07T23:52:08.254Z,99847.98
2019-02-07T23:54:37.460Z,99845.95
2019-02-07T23:57:07.047Z,99853.73
2019-02-07T23:59:44.320Z,99845.11
